Terminal Aerodrome Forecast
Issued by NWS

Home | Current Version | Previous Version | Text Only | Print | Product List | Glossary On
Versions: 1 2 3 4 5 6 7 8 9 10 11 12 13 14 15 16 17 18 19 20 21 22 23 24 25 26 27
000
FTUS42 KCAE 251243 AAA
TAFOGB
TAF AMD
KOGB 251243Z 2513/2612 VRB03KT 6SM BR SKC
     FM251500 24006KT P6SM FEW060
     FM260100 VRB03KT P6SM SKC
     FM260800 00000KT 2SM BR SCT001=

USA.gov is the U.S. government's official web portal to all federal, state and local government web resources and services.